createdAt,value
2022-09-10T00:00:29.665Z,66.67
2022-09-10T00:02:55.687Z,66.21
2022-09-10T00:05:21.659Z,66.60
2022-09-10T00:07:48.555Z,66.70
2022-09-10T00:10:14.511Z,66.72
2022-09-10T00:12:40.434Z,66.54
2022-09-10T00:15:06.445Z,66.50
2022-09-10T00:17:32.383Z,66.11
2022-09-10T00:19:58.349Z,66.26
2022-09-10T00:22:25.074Z,66.13
2022-09-10T00:24:51.084Z,65.45
2022-09-10T00:27:17.020Z,66.08
2022-09-10T00:29:42.979Z,66.10
2022-09-10T00:32:09.873Z,65.92
2022-09-10T00:34:35.871Z,66.57
2022-09-10T00:37:01.837Z,66.48
2022-09-10T00:39:28.510Z,66.22
2022-09-10T00:41:54.489Z,66.01
2022-09-10T00:44:21.327Z,65.89
2022-09-10T00:46:47.935Z,66.32
2022-09-10T00:49:14.500Z,65.91
2022-09-10T00:51:40.498Z,66.15
2022-09-10T00:54:06.748Z,66.26
2022-09-10T00:56:32.728Z,66.58
2022-09-10T00:58:58.660Z,66.43
2022-09-10T01:01:24.612Z,65.58
2022-09-10T01:03:50.905Z,66.06
2022-09-10T01:06:17.546Z,65.85
2022-09-10T01:08:43.471Z,66.10
2022-09-10T01:11:09.416Z,66.63
2022-09-10T01:13:35.372Z,66.69
2022-09-10T01:16:02.117Z,66.54
2022-09-10T01:18:28.107Z,66.48
2022-09-10T01:20:54.048Z,66.26
2022-09-10T01:23:20.063Z,66.04
2022-09-10T01:25:46.240Z,66.07
2022-09-10T01:28:12.663Z,65.83
2022-09-10T01:30:38.699Z,66.00
2022-09-10T01:33:05.350Z,66.18
2022-09-10T01:35:32.236Z,65.98
2022-09-10T01:37:58.168Z,66.41
2022-09-10T01:40:24.616Z,66.89
2022-09-10T01:42:50.577Z,66.89
2022-09-10T01:45:17.195Z,66.55
2022-09-10T01:47:43.157Z,66.48
2022-09-10T01:50:09.093Z,66.57
2022-09-10T01:52:35.121Z,66.39
2022-09-10T01:55:01.692Z,66.36
2022-09-10T01:57:27.647Z,66.47
2022-09-10T01:59:53.933Z,66.50
2022-09-10T02:02:21.457Z,66.63
2022-09-10T02:10:08.578Z,67.04
2022-09-10T02:12:34.735Z,66.70
2022-09-10T04:10:10.739Z,66.61
2022-09-10T04:12:37.426Z,66.22
2022-09-10T04:15:03.368Z,66.24
2022-09-10T04:17:29.971Z,66.15
2022-09-10T04:19:55.923Z,66.00
2022-09-10T04:22:21.884Z,65.87
2022-09-10T04:24:47.818Z,66.27
2022-09-10T04:27:13.789Z,65.90
2022-09-10T04:29:39.755Z,66.17
2022-09-10T04:32:05.807Z,66.27
2022-09-10T04:34:31.764Z,66.35
2022-09-10T04:36:58.130Z,66.15
2022-09-10T04:39:24.107Z,65.84
2022-09-10T04:41:50.062Z,65.72
2022-09-10T04:44:16.916Z,65.53
2022-09-10T04:46:43.584Z,65.86
2022-09-10T04:49:09.602Z,66.12
2022-09-10T04:51:35.556Z,66.26
2022-09-10T04:54:02.237Z,66.01
2022-09-10T04:56:28.249Z,65.78
2022-09-10T04:58:54.220Z,65.74
2022-09-10T05:01:20.922Z,65.89
2022-09-10T05:03:46.936Z,65.93
2022-09-10T05:06:12.891Z,66.26
2022-09-10T05:08:39.536Z,65.92
2022-09-10T05:11:05.515Z,65.90
2022-09-10T05:13:31.455Z,65.81
2022-09-10T05:15:57.391Z,65.73
2022-09-10T05:18:24.226Z,65.55
2022-09-10T05:20:50.174Z,65.42
2022-09-10T05:23:16.123Z,65.14
2022-09-10T05:25:42.809Z,65.72
2022-09-10T05:28:08.790Z,66.05
2022-09-10T05:30:34.801Z,65.96
2022-09-10T05:33:00.733Z,65.57
2022-09-10T05:35:27.557Z,65.82
2022-09-10T05:37:53.822Z,66.17
2022-09-10T05:40:19.789Z,65.50
2022-09-10T05:42:45.770Z,65.29
2022-09-10T05:45:11.732Z,64.90
2022-09-10T05:47:37.678Z,65.00
2022-09-10T05:50:03.610Z,65.19
2022-09-10T05:52:29.584Z,64.56
2022-09-10T05:54:55.511Z,64.57
2022-09-10T05:57:21.486Z,64.27
2022-09-10T05:59:48.114Z,64.26
2022-09-10T06:02:14.088Z,63.99
2022-09-10T06:04:40.112Z,63.60
2022-09-10T06:07:06.044Z,63.60
2022-09-10T06:09:32.028Z,63.22
2022-09-10T06:11:58.004Z,63.44
2022-09-10T06:14:24.661Z,63.62
2022-09-10T06:16:50.641Z,63.63
2022-09-10T06:19:16.628Z,63.20
2022-09-10T06:21:43.296Z,63.10
2022-09-10T06:24:09.257Z,62.83
2022-09-10T06:26:35.238Z,62.42
2022-09-10T06:29:01.235Z,62.09
2022-09-10T06:31:27.173Z,62.19
2022-09-10T06:33:53.143Z,61.77
2022-09-10T06:36:19.096Z,61.50
2022-09-10T06:38:45.093Z,61.79
2022-09-10T06:41:11.055Z,60.61
2022-09-10T06:43:37.701Z,60.98
2022-09-10T06:46:03.749Z,62.64
2022-09-10T06:48:38.561Z,62.76
2022-09-10T06:51:06.226Z,62.42
2022-09-10T06:53:32.503Z,62.10
2022-09-10T06:55:59.854Z,60.23
2022-09-10T06:58:26.216Z,59.90
2022-09-10T07:00:52.363Z,60.97
2022-09-10T07:11:20.472Z,59.83
2022-09-10T09:08:09.417Z,43.13
2022-09-10T09:10:35.375Z,42.68
2022-09-10T09:13:02.089Z,41.86
2022-09-10T09:15:28.153Z,39.77
2022-09-10T09:17:54.141Z,41.64
2022-09-10T09:20:20.136Z,42.40
2022-09-10T09:22:46.992Z,42.64
2022-09-10T09:25:12.988Z,42.31
2022-09-10T09:27:38.931Z,45.62
2022-09-10T09:30:05.613Z,45.23
2022-09-10T09:32:31.593Z,44.73
2022-09-10T09:34:57.546Z,44.81
2022-09-10T09:37:23.517Z,44.73
2022-09-10T09:39:49.502Z,43.87
2022-09-10T09:42:15.476Z,43.55
2022-09-10T09:44:41.456Z,43.12
2022-09-10T09:47:07.381Z,42.81
2022-09-10T09:49:33.351Z,44.00
2022-09-10T09:51:59.283Z,43.27
2022-09-10T09:57:11.187Z,44.17
2022-09-10T09:59:37.133Z,44.99
2022-09-10T10:02:04.032Z,43.82
2022-09-10T10:04:30.835Z,43.59
2022-09-10T10:06:56.901Z,42.00
2022-09-10T10:09:22.857Z,40.81
2022-09-10T10:11:49.505Z,37.80
2022-09-10T10:14:15.477Z,39.15
2022-09-10T10:16:42.173Z,36.36
2022-09-10T10:19:08.143Z,40.65
2022-09-10T10:21:34.133Z,39.00
2022-09-10T10:24:00.108Z,39.54
2022-09-10T10:29:10.374Z,37.80
2022-09-10T10:31:36.382Z,38.86
2022-09-10T10:34:02.332Z,39.89
2022-09-10T10:36:28.513Z,38.69
2022-09-10T10:38:54.445Z,38.97
2022-09-10T10:41:20.407Z,39.67
2022-09-10T10:43:46.375Z,36.81
2022-09-10T10:46:12.358Z,37.85
2022-09-10T10:48:38.445Z,37.27
2022-09-10T10:51:04.414Z,35.83
2022-09-10T10:53:31.150Z,33.15
2022-09-10T10:55:57.220Z,36.67
2022-09-10T10:58:23.150Z,34.68
2022-09-10T11:00:50.053Z,35.30
2022-09-10T11:03:15.999Z,35.18
2022-09-10T11:05:41.970Z,36.18
2022-09-10T11:08:07.901Z,35.39
2022-09-10T11:10:33.866Z,34.63
2022-09-10T11:12:59.795Z,34.02
2022-09-10T11:15:25.776Z,34.41
2022-09-10T11:17:51.750Z,33.25
2022-09-10T11:20:28.490Z,34.00
2022-09-10T11:22:55.219Z,33.93
2022-09-10T11:25:21.926Z,33.38
2022-09-10T11:27:47.949Z,34.11
2022-09-10T11:30:13.892Z,35.32
2022-09-10T11:32:39.835Z,35.41
2022-09-10T11:35:05.803Z,35.83
2022-09-10T11:37:32.720Z,34.80
2022-09-10T11:39:58.758Z,35.01
2022-09-10T11:42:24.766Z,33.90
2022-09-10T11:44:50.722Z,33.77
2022-09-10T11:47:18.050Z,32.67
2022-09-10T11:49:44.484Z,33.58
2022-09-10T11:52:10.708Z,32.89
2022-09-10T11:54:37.935Z,33.42
2022-09-10T11:57:04.179Z,32.03
2022-09-10T12:02:11.045Z,34.13
2022-09-10T14:02:23.497Z,42.93
2022-09-10T14:04:50.204Z,43.62
2022-09-10T14:07:16.193Z,43.93
2022-09-10T14:09:42.133Z,44.07
2022-09-10T14:12:08.844Z,44.13
2022-09-10T14:14:34.839Z,44.54
2022-09-10T14:17:00.773Z,44.78
2022-09-10T14:19:27.563Z,45.33
2022-09-10T14:21:53.513Z,46.09
2022-09-10T14:24:19.445Z,45.76
2022-09-10T14:26:45.566Z,46.87
2022-09-10T14:29:11.632Z,47.01
2022-09-10T14:31:37.608Z,47.47
2022-09-10T14:34:03.545Z,47.84
2022-09-10T14:36:29.506Z,47.97
2022-09-10T14:38:56.195Z,47.01
2022-09-10T14:41:22.160Z,46.79
2022-09-10T14:43:48.122Z,45.45
2022-09-10T14:46:14.103Z,45.58
2022-09-10T14:48:40.151Z,46.54
2022-09-10T14:51:06.485Z,46.32
2022-09-10T14:53:33.317Z,46.83
2022-09-10T14:55:59.326Z,46.61
2022-09-10T14:58:25.457Z,47.94
2022-09-10T15:00:52.174Z,47.23
2022-09-10T15:03:18.161Z,48.11
2022-09-10T15:05:44.130Z,47.87
2022-09-10T15:08:10.792Z,47.71
2022-09-10T15:10:36.750Z,47.02
2022-09-10T15:13:02.714Z,46.81
2022-09-10T15:15:29.356Z,47.26
2022-09-10T15:17:56.214Z,48.27
2022-09-10T15:20:27.173Z,48.43
2022-09-10T15:22:53.874Z,47.76
2022-09-10T15:25:20.589Z,48.22
2022-09-10T15:27:46.519Z,48.09
2022-09-10T15:30:12.477Z,48.54
2022-09-10T15:32:39.046Z,49.21
2022-09-10T15:35:05.006Z,48.59
2022-09-10T15:37:30.994Z,48.74
2022-09-10T15:39:57.046Z,48.29
2022-09-10T15:42:23.070Z,48.66
2022-09-10T15:44:49.022Z,49.37
2022-09-10T15:47:14.975Z,49.18
2022-09-10T15:49:41.653Z,49.88
2022-09-10T15:52:07.607Z,49.13
2022-09-10T15:54:33.580Z,48.71
2022-09-10T15:56:59.530Z,48.42
2022-09-10T15:59:26.562Z,48.85
2022-09-10T16:01:52.572Z,49.44
2022-09-10T16:04:18.538Z,49.91
2022-09-10T16:06:45.447Z,50.42
2022-09-10T16:09:11.454Z,50.34
2022-09-10T16:11:38.073Z,49.85
2022-09-10T16:14:04.820Z,49.67
2022-09-10T16:16:30.887Z,50.10
2022-09-10T16:18:57.511Z,49.60
2022-09-10T16:21:23.441Z,49.75
2022-09-10T16:23:49.397Z,50.31
2022-09-10T16:26:15.323Z,50.83
2022-09-10T16:28:41.406Z,50.33
2022-09-10T16:31:08.236Z,50.42
2022-09-10T16:33:34.230Z,50.55
2022-09-10T16:36:00.227Z,51.23
2022-09-10T16:38:26.806Z,50.76
2022-09-10T16:40:52.808Z,51.20
2022-09-10T16:43:19.075Z,51.19
2022-09-10T16:45:46.653Z,51.44
2022-09-10T16:48:12.874Z,51.38
2022-09-10T16:50:40.267Z,52.03
2022-09-10T16:53:11.419Z,51.56
2022-09-10T16:55:38.053Z,52.11
2022-09-10T18:55:21.107Z,54.46
2022-09-10T18:57:47.071Z,54.53
2022-09-10T19:00:13.197Z,55.34
2022-09-10T19:02:39.285Z,54.59
2022-09-10T19:05:11.573Z,54.53
2022-09-10T19:07:37.909Z,54.74
2022-09-10T19:10:04.437Z,55.32
2022-09-10T19:12:31.481Z,55.37
2022-09-10T19:14:57.432Z,55.30
2022-09-10T19:17:23.372Z,55.94
2022-09-10T19:19:50.296Z,55.63
2022-09-10T19:22:16.288Z,55.98
2022-09-10T19:24:58.703Z,56.18
2022-09-10T19:27:24.655Z,56.87
2022-09-10T19:29:51.482Z,56.52
2022-09-10T19:32:17.473Z,56.83
2022-09-10T19:34:43.450Z,57.28
2022-09-10T19:37:09.403Z,57.56
2022-09-10T19:39:36.023Z,57.63
2022-09-10T19:42:02.005Z,57.09
2022-09-10T19:44:28.010Z,57.93
2022-09-10T19:46:54.800Z,57.97
2022-09-10T19:49:20.757Z,58.09
2022-09-10T19:51:46.752Z,57.76
2022-09-10T19:54:13.364Z,57.97
2022-09-10T19:56:39.353Z,57.92
2022-09-10T19:59:05.318Z,57.97
2022-09-10T20:01:31.416Z,58.65
2022-09-10T20:03:57.410Z,59.27
2022-09-10T20:06:24.209Z,59.21
2022-09-10T20:08:50.163Z,58.76
2022-09-10T20:11:16.152Z,58.72
2022-09-10T20:13:42.846Z,58.73
2022-09-10T20:16:08.820Z,58.49
2022-09-10T20:18:35.675Z,58.68
2022-09-10T20:21:01.627Z,59.07
2022-09-10T20:23:27.595Z,59.92
2022-09-10T20:25:53.532Z,60.25
2022-09-10T20:28:19.481Z,60.21
2022-09-10T20:30:46.376Z,60.25
2022-09-10T20:33:12.357Z,59.87
2022-09-10T20:35:38.326Z,59.42
2022-09-10T20:38:05.018Z,59.55
2022-09-10T20:40:31.008Z,60.11
2022-09-10T20:42:56.945Z,61.25
2022-09-10T20:45:22.963Z,60.54
2022-09-10T20:47:48.947Z,60.13
2022-09-10T20:50:14.885Z,59.79
2022-09-10T20:52:40.849Z,60.03
2022-09-10T20:55:06.804Z,60.41
2022-09-10T20:57:33.557Z,60.63
2022-09-10T21:00:02.232Z,61.26
2022-09-10T21:02:29.131Z,60.84
2022-09-10T21:04:55.110Z,61.20
2022-09-10T21:07:21.433Z,61.31
2022-09-10T21:09:48.040Z,61.46
2022-09-10T21:12:13.998Z,60.90
2022-09-10T21:14:40.584Z,60.87
2022-09-10T21:17:06.551Z,60.88
2022-09-10T21:19:32.508Z,61.05
2022-09-10T21:21:58.452Z,61.19
2022-09-10T21:24:24.418Z,61.08
2022-09-10T21:26:50.346Z,60.50
2022-09-10T21:29:16.335Z,60.60
2022-09-10T21:31:42.310Z,61.68
2022-09-10T21:34:09.197Z,61.30
2022-09-10T21:36:35.492Z,62.40
2022-09-10T21:39:01.788Z,62.25
2022-09-10T21:41:28.513Z,61.56
2022-09-10T21:43:54.780Z,60.91
2022-09-10T21:49:01.319Z,61.04
